createdAt,value
2018-03-11T00:00:07.624Z,0
2018-03-11T00:01:17.833Z,0
2018-03-11T00:02:28.110Z,0
2018-03-11T00:03:38.278Z,0
2018-03-11T00:04:48.526Z,0
2018-03-11T00:05:58.314Z,0
2018-03-11T00:07:08.094Z,0
2018-03-11T00:08:18.271Z,0
2018-03-11T00:09:28.448Z,0
2018-03-11T00:10:38.610Z,0
2018-03-11T00:11:48.830Z,0
2018-03-11T00:12:59.037Z,0
2018-03-11T00:14:08.308Z,0
2018-03-11T00:15:18.612Z,0
2018-03-11T00:16:28.790Z,0
2018-03-11T00:17:38.933Z,0
2018-03-11T00:18:48.838Z,0
2018-03-11T00:19:58.994Z,0
2018-03-11T00:21:09.132Z,0
2018-03-11T00:22:19.350Z,0
2018-03-11T00:23:29.313Z,0
2018-03-11T00:24:39.444Z,0
2018-03-11T00:25:49.478Z,0
2018-03-11T00:26:59.651Z,0
2018-03-11T00:28:09.480Z,0
2018-03-11T00:29:19.896Z,0
2018-03-11T00:30:30.061Z,0
2018-03-11T00:31:39.955Z,0
2018-03-11T00:32:50.137Z,0
2018-03-11T00:33:59.747Z,0
2018-03-11T00:35:09.383Z,0
2018-03-11T00:36:19.525Z,0
2018-03-11T00:37:29.419Z,0
2018-03-11T00:38:39.585Z,0
2018-03-11T00:39:49.835Z,0
2018-03-11T00:40:59.967Z,0
2018-03-11T00:42:09.844Z,0
2018-03-11T00:43:19.803Z,0
2018-03-11T00:44:29.710Z,0
2018-03-11T00:45:39.942Z,0
2018-03-11T00:46:50.082Z,0
2018-03-11T00:48:00.252Z,0
2018-03-11T00:49:10.443Z,0
2018-03-11T00:50:20.728Z,0
2018-03-11T00:51:30.723Z,0
2018-03-11T00:52:40.887Z,0
2018-03-11T00:53:51.060Z,0
2018-03-11T00:55:01.244Z,0
2018-03-11T00:56:10.832Z,0
2018-03-11T00:57:21.029Z,0
2018-03-11T00:58:31.213Z,0
2018-03-11T00:59:41.598Z,0
2018-03-11T01:00:51.754Z,0
2018-03-11T01:02:02.031Z,0
2018-03-11T01:03:12.276Z,0
2018-03-11T01:04:22.431Z,0
2018-03-11T01:05:32.650Z,0
2018-03-11T01:06:42.855Z,0
2018-03-11T01:07:52.745Z,0
2018-03-11T01:09:02.893Z,0
2018-03-11T01:10:13.270Z,0
2018-03-11T01:11:22.948Z,0
2018-03-11T01:12:33.456Z,0
2018-03-11T01:13:43.603Z,0
2018-03-11T01:14:53.940Z,0
2018-03-11T01:16:03.795Z,0
2018-03-11T01:17:14.000Z,0
2018-03-11T01:18:24.175Z,0
2018-03-11T01:19:34.106Z,0
2018-03-11T01:20:44.282Z,0
2018-03-11T01:21:54.441Z,0
2018-03-11T01:23:04.625Z,0
2018-03-11T01:24:14.765Z,0
2018-03-11T01:25:24.935Z,0
2018-03-11T01:26:34.424Z,0
2018-03-11T01:27:44.197Z,0
2018-03-11T01:28:54.343Z,0
2018-03-11T01:30:04.518Z,0
2018-03-11T01:31:14.663Z,0
2018-03-11T01:32:24.812Z,0
2018-03-11T01:33:34.711Z,0
2018-03-11T01:34:44.612Z,0
2018-03-11T01:35:54.760Z,0
2018-03-11T01:37:04.722Z,0
2018-03-11T01:38:14.953Z,0
2018-03-11T01:39:25.179Z,0
2018-03-11T01:40:35.422Z,0
2018-03-11T01:41:45.604Z,0
2018-03-11T01:42:55.515Z,0
2018-03-11T01:44:05.692Z,0
2018-03-11T01:45:15.646Z,0
2018-03-11T01:46:25.982Z,0
2018-03-11T01:47:36.161Z,0
2018-03-11T01:48:46.324Z,0
2018-03-11T01:49:56.766Z,0
2018-03-11T01:51:06.942Z,0
2018-03-11T01:52:17.171Z,0
2018-03-11T01:53:27.347Z,0
2018-03-11T01:54:37.562Z,0
2018-03-11T01:55:47.824Z,0
2018-03-11T01:56:57.967Z,0
2018-03-11T01:58:08.169Z,0
2018-03-11T01:59:18.279Z,0
2018-03-11T02:00:28.413Z,0
2018-03-11T02:01:38.298Z,0
2018-03-11T02:02:48.420Z,0
2018-03-11T02:03:58.335Z,0
2018-03-11T02:05:08.467Z,0
2018-03-11T02:06:17.737Z,0
2018-03-11T02:07:28.033Z,0
2018-03-11T02:08:37.930Z,0
2018-03-11T02:09:48.074Z,0
2018-03-11T02:10:58.316Z,0
2018-03-11T02:12:08.205Z,0
2018-03-11T02:13:17.726Z,0
2018-03-11T02:14:28.020Z,0
2018-03-11T02:15:38.173Z,0
2018-03-11T02:16:48.090Z,0
2018-03-11T02:17:57.766Z,0
2018-03-11T02:19:07.913Z,0
2018-03-11T02:20:18.071Z,0
2018-03-11T02:21:28.378Z,0
2018-03-11T02:22:38.576Z,0
2018-03-11T02:23:48.774Z,0
2018-03-11T02:24:58.991Z,0
2018-03-11T02:26:08.770Z,0
2018-03-11T02:27:18.942Z,0
2018-03-11T02:28:28.831Z,0
2018-03-11T02:29:38.972Z,0
2018-03-11T02:30:49.178Z,0
2018-03-11T02:31:59.073Z,0
2018-03-11T02:33:09.211Z,0
2018-03-11T02:34:19.400Z,0
2018-03-11T02:35:29.600Z,0
2018-03-11T02:36:39.763Z,0
2018-03-11T02:37:49.993Z,0
2018-03-11T02:39:00.139Z,0
2018-03-11T02:40:09.799Z,0
2018-03-11T02:41:20.022Z,0
2018-03-11T02:42:30.191Z,0
2018-03-11T02:43:40.349Z,0
2018-03-11T02:44:50.504Z,0
2018-03-11T02:46:00.377Z,0
2018-03-11T02:47:10.279Z,0
2018-03-11T02:48:20.538Z,0
2018-03-11T02:49:30.515Z,0
2018-03-11T02:50:40.686Z,0
2018-03-11T02:51:50.827Z,0
2018-03-11T02:53:00.447Z,0
2018-03-11T02:54:10.692Z,0
2018-03-11T02:55:20.870Z,0
2018-03-11T02:56:31.129Z,0
2018-03-11T02:57:41.099Z,0
2018-03-11T02:58:51.258Z,0
2018-03-11T03:00:01.373Z,0
2018-03-11T03:01:11.366Z,0
2018-03-11T03:02:21.586Z,0
2018-03-11T03:03:31.487Z,0
2018-03-11T03:04:41.597Z,0
2018-03-11T03:05:51.690Z,0
2018-03-11T03:07:02.161Z,0
2018-03-11T03:08:12.374Z,0
2018-03-11T03:09:22.504Z,0
2018-03-11T03:10:32.445Z,0
2018-03-11T03:11:42.053Z,0
2018-03-11T03:12:51.922Z,0
2018-03-11T03:14:01.782Z,0
2018-03-11T03:15:11.682Z,0
2018-03-11T03:16:21.573Z,0
2018-03-11T03:17:31.531Z,0
2018-03-11T03:18:41.701Z,0
2018-03-11T03:19:52.050Z,0
2018-03-11T03:21:02.181Z,0
2018-03-11T03:22:11.551Z,0
2018-03-11T03:23:21.760Z,0
2018-03-11T03:24:32.111Z,0
2018-03-11T03:25:41.520Z,0
2018-03-11T03:26:51.392Z,0
2018-03-11T03:28:01.608Z,0
2018-03-11T03:29:12.205Z,0
2018-03-11T03:30:22.350Z,0
2018-03-11T03:31:32.491Z,0
2018-03-11T03:32:43.086Z,0
2018-03-11T03:33:53.326Z,0
2018-03-11T03:35:03.483Z,0
2018-03-11T03:36:13.585Z,0
2018-03-11T03:37:23.752Z,0
2018-03-11T03:38:34.018Z,0
2018-03-11T03:39:43.895Z,0
2018-03-11T03:40:54.034Z,0
2018-03-11T03:42:04.225Z,0
2018-03-11T03:43:14.593Z,0
2018-03-11T03:44:24.196Z,0
2018-03-11T03:45:34.335Z,0
2018-03-11T03:46:43.861Z,0
2018-03-11T03:47:53.985Z,0
2018-03-11T03:49:03.589Z,0
2018-03-11T03:50:13.955Z,0
2018-03-11T03:51:23.572Z,0
2018-03-11T03:52:33.486Z,0
2018-03-11T03:53:43.634Z,0
2018-03-11T03:54:53.535Z,0
2018-03-11T03:56:03.662Z,0
2018-03-11T03:57:14.060Z,0
2018-03-11T03:58:24.168Z,0
2018-03-11T03:59:34.321Z,0
2018-03-11T04:00:44.250Z,0
2018-03-11T04:01:54.602Z,0
2018-03-11T04:03:04.760Z,0
2018-03-11T04:04:14.891Z,0
2018-03-11T04:05:24.912Z,0
2018-03-11T04:06:35.159Z,0
2018-03-11T04:07:45.530Z,0
2018-03-11T04:08:55.644Z,0
2018-03-11T04:10:05.437Z,0
2018-03-11T04:11:15.360Z,0
2018-03-11T04:12:25.271Z,0
2018-03-11T04:13:35.645Z,0
2018-03-11T04:14:45.802Z,0
2018-03-11T04:15:55.657Z,0
2018-03-11T04:17:05.831Z,0
2018-03-11T04:18:15.073Z,0
2018-03-11T04:19:25.438Z,0
2018-03-11T04:20:35.307Z,0
2018-03-11T04:21:45.569Z,0
2018-03-11T04:22:55.733Z,0
2018-03-11T04:24:05.326Z,0
2018-03-11T04:25:15.227Z,0
2018-03-11T04:26:25.418Z,0
2018-03-11T04:27:35.712Z,0
2018-03-11T04:28:45.929Z,0
2018-03-11T04:29:55.786Z,0
2018-03-11T04:31:05.929Z,0
2018-03-11T04:32:16.085Z,0
2018-03-11T04:33:26.238Z,0
2018-03-11T04:34:36.578Z,0
2018-03-11T04:35:46.907Z,0
2018-03-11T04:36:57.206Z,0
2018-03-11T04:38:07.166Z,0
2018-03-11T04:39:16.928Z,0
2018-03-11T04:40:27.294Z,0
2018-03-11T04:41:37.419Z,0
2018-03-11T04:42:47.304Z,0
2018-03-11T04:43:57.463Z,0
2018-03-11T04:45:07.434Z,0
2018-03-11T04:46:17.144Z,0
2018-03-11T04:47:27.285Z,0
2018-03-11T04:48:37.245Z,0
2018-03-11T04:49:46.849Z,0
2018-03-11T04:50:56.982Z,0
2018-03-11T04:52:07.148Z,0
2018-03-11T04:53:17.034Z,0
2018-03-11T04:54:27.482Z,0
2018-03-11T04:55:37.633Z,0
2018-03-11T04:56:47.839Z,0
2018-03-11T04:57:58.014Z,0
2018-03-11T04:59:08.168Z,0
2018-03-11T05:00:18.367Z,0
2018-03-11T05:01:28.502Z,0
2018-03-11T05:02:38.019Z,0
2018-03-11T05:03:48.163Z,0
2018-03-11T05:04:58.350Z,0
2018-03-11T05:06:08.507Z,0
2018-03-11T05:07:18.389Z,0
2018-03-11T05:08:34.328Z,4
2018-03-11T05:09:44.430Z,0
2018-03-11T05:10:54.765Z,4
2018-03-11T05:12:04.356Z,4
2018-03-11T05:13:13.917Z,4
2018-03-11T05:14:24.146Z,4
2018-03-11T05:15:34.301Z,8
2018-03-11T05:16:44.453Z,8
2018-03-11T05:17:54.576Z,12
2018-03-11T05:19:04.435Z,12
2018-03-11T05:20:14.505Z,20
2018-03-11T05:21:24.627Z,20
2018-03-11T05:22:34.750Z,28
2018-03-11T05:23:44.988Z,32
2018-03-11T05:24:55.204Z,36
2018-03-11T05:26:05.412Z,44
2018-03-11T05:27:15.292Z,52
2018-03-11T05:28:25.207Z,60
2018-03-11T05:29:34.715Z,72
2018-03-11T05:30:44.902Z,80
2018-03-11T05:31:55.041Z,96
2018-03-11T05:33:05.253Z,112
2018-03-11T05:34:14.877Z,128
2018-03-11T05:35:25.014Z,148
2018-03-11T05:36:35.566Z,164
2018-03-11T05:37:45.518Z,184
2018-03-11T05:38:55.482Z,208
2018-03-11T05:40:05.401Z,236
2018-03-11T05:41:15.305Z,264
2018-03-11T05:42:25.181Z,300
2018-03-11T05:43:35.394Z,336
2018-03-11T05:44:45.599Z,376
2018-03-11T05:45:55.468Z,420
2018-03-11T05:47:05.668Z,468
2018-03-11T05:48:15.798Z,524
2018-03-11T05:49:25.970Z,572
2018-03-11T05:50:36.250Z,624
2018-03-11T05:51:46.412Z,672
2018-03-11T05:52:56.551Z,728
2018-03-11T05:54:06.764Z,780
2018-03-11T05:55:17.058Z,828
2018-03-11T05:56:27.231Z,880
2018-03-11T05:57:37.127Z,928
2018-03-11T05:58:47.256Z,984
2018-03-11T05:59:57.426Z,1036
2018-03-11T06:01:07.686Z,1096
2018-03-11T06:02:17.888Z,1152
2018-03-11T06:03:27.761Z,1208
2018-03-11T06:04:37.631Z,1260
2018-03-11T06:05:47.590Z,1308
2018-03-11T06:06:57.746Z,1356
2018-03-11T06:08:08.028Z,1404
2018-03-11T06:09:18.152Z,1464
2018-03-11T06:10:28.303Z,1524
2018-03-11T06:11:38.158Z,1584
2018-03-11T06:12:48.334Z,1632
2018-03-11T06:13:58.263Z,1672
2018-03-11T06:15:08.421Z,1712
2018-03-11T06:16:18.594Z,1764
2018-03-11T06:17:28.484Z,1808
2018-03-11T06:18:38.649Z,1872
2018-03-11T06:19:48.779Z,1940
2018-03-11T06:20:58.394Z,2012
2018-03-11T06:22:08.551Z,2072
2018-03-11T06:23:18.347Z,2136
2018-03-11T06:24:28.472Z,2196
2018-03-11T06:25:38.620Z,2260
2018-03-11T06:26:48.790Z,2324
2018-03-11T06:27:58.627Z,2384
2018-03-11T06:29:08.782Z,2368
2018-03-11T06:30:18.920Z,2340
2018-03-11T06:31:29.090Z,2340
2018-03-11T06:32:39.300Z,2396
2018-03-11T06:33:49.465Z,2476
2018-03-11T06:34:59.733Z,2552
2018-03-11T06:36:09.883Z,2716
2018-03-11T06:37:20.096Z,2984
2018-03-11T06:38:30.307Z,3052
2018-03-11T06:39:40.174Z,2928
2018-03-11T06:40:49.800Z,2808
2018-03-11T06:41:59.993Z,2856
2018-03-11T06:43:10.215Z,3000
2018-03-11T06:44:20.441Z,3160
2018-03-11T06:45:30.583Z,3284
2018-03-11T06:46:40.746Z,3364
2018-03-11T06:47:50.966Z,3368
2018-03-11T06:49:01.093Z,3288
2018-03-11T06:50:11.224Z,3252
2018-03-11T06:51:21.398Z,3256
2018-03-11T06:52:31.565Z,3208
2018-03-11T06:53:41.440Z,3492
2018-03-11T06:54:51.305Z,3868
2018-03-11T06:56:01.440Z,4308
2018-03-11T06:57:11.608Z,4696
2018-03-11T06:58:21.804Z,5020
2018-03-11T06:59:31.938Z,5268
2018-03-11T07:00:41.818Z,5360
2018-03-11T07:01:51.613Z,5180
2018-03-11T07:03:01.507Z,5104
2018-03-11T07:04:11.913Z,5164
2018-03-11T07:05:22.052Z,5316
2018-03-11T07:06:32.334Z,5432
2018-03-11T07:07:42.478Z,5512
2018-03-11T07:08:52.763Z,5508
2018-03-11T07:10:02.936Z,5456
2018-03-11T07:11:13.131Z,5380
2018-03-11T07:12:23.391Z,5396
2018-03-11T07:13:33.573Z,5476
2018-03-11T07:14:43.097Z,5604
2018-03-11T07:15:52.967Z,5880
2018-03-11T07:17:02.798Z,6020
2018-03-11T07:18:12.588Z,6088
2018-03-11T07:19:22.751Z,6120
2018-03-11T07:20:32.969Z,6008
2018-03-11T07:21:42.797Z,5820
2018-03-11T07:22:52.723Z,5604
2018-03-11T07:24:02.597Z,5516
2018-03-11T07:25:12.898Z,5552
2018-03-11T07:26:23.184Z,5456
2018-03-11T07:27:33.430Z,5516
2018-03-11T07:28:43.601Z,5528
2018-03-11T07:29:53.467Z,5532
2018-03-11T07:31:03.345Z,5588
2018-03-11T07:32:13.508Z,5816
2018-03-11T07:33:23.685Z,5780
2018-03-11T07:34:33.646Z,5944
2018-03-11T07:35:43.497Z,5968
2018-03-11T07:36:53.400Z,5944
2018-03-11T07:38:03.570Z,5956
2018-03-11T07:39:13.534Z,5988
2018-03-11T07:40:23.809Z,6004
2018-03-11T07:41:34.049Z,6164
2018-03-11T07:42:44.004Z,6212
2018-03-11T07:43:54.179Z,6252
2018-03-11T07:45:04.355Z,6388
2018-03-11T07:46:14.733Z,6424
2018-03-11T07:47:24.884Z,6584
2018-03-11T07:48:34.828Z,6752
2018-03-11T07:49:45.136Z,7188
2018-03-11T07:50:55.312Z,9964
2018-03-11T07:52:04.837Z,14688
2018-03-11T07:53:14.465Z,18688
2018-03-11T07:54:24.371Z,20192
2018-03-11T07:55:34.324Z,20352
2018-03-11T07:56:44.504Z,21792
2018-03-11T07:57:54.381Z,21952
2018-03-11T07:59:03.763Z,23872
2018-03-11T08:00:13.652Z,24224
2018-03-11T08:01:23.852Z,26112
2018-03-11T08:02:34.019Z,25600
2018-03-11T08:03:44.184Z,24992
2018-03-11T08:04:54.367Z,27168
2018-03-11T08:06:04.566Z,27104
2018-03-11T08:07:14.480Z,28544
2018-03-11T08:08:24.661Z,29120
2018-03-11T08:09:34.564Z,28544
2018-03-11T08:10:44.729Z,28224
2018-03-11T08:13:07.815Z,30816
2018-03-11T08:24:21.620Z,33568
2018-03-11T08:25:31.527Z,32928
2018-03-11T08:26:41.466Z,35264
2018-03-11T08:27:51.651Z,40000
2018-03-11T08:29:01.898Z,37120
2018-03-11T08:30:12.129Z,33600
2018-03-11T08:31:22.367Z,37856
2018-03-11T08:32:32.620Z,33856
2018-03-11T08:33:42.592Z,34016
2018-03-11T08:34:52.510Z,36512
2018-03-11T08:36:02.784Z,35936
2018-03-11T08:37:12.989Z,33472
2018-03-11T08:38:22.899Z,34304
2018-03-11T08:39:33.083Z,33120
2018-03-11T08:40:43.274Z,28256
2018-03-11T08:41:53.527Z,24384
2018-03-11T08:43:03.712Z,23840
2018-03-11T08:44:12.979Z,15264
2018-03-11T08:45:23.202Z,13384
2018-03-11T08:46:33.422Z,13656
2018-03-11T08:47:43.662Z,13404
2018-03-11T08:48:53.815Z,15040
2018-03-11T08:50:04.022Z,18848
2018-03-11T08:51:13.785Z,17920
2018-03-11T08:52:23.966Z,18336
2018-03-11T08:53:34.203Z,22848
2018-03-11T08:54:44.361Z,21088
2018-03-11T08:55:54.564Z,21056
2018-03-11T08:57:04.741Z,19872
2018-03-11T08:58:14.911Z,16064
2018-03-11T08:59:25.160Z,13964
2018-03-11T09:00:35.377Z,13152
2018-03-11T09:01:45.541Z,13648
2018-03-11T09:02:55.770Z,14624
2018-03-11T09:04:06.081Z,15744
2018-03-11T09:05:16.329Z,17440
2018-03-11T09:06:26.513Z,20096
2018-03-11T09:07:36.698Z,23808
2018-03-11T09:08:46.501Z,44896
2018-03-11T09:09:56.756Z,55232
2018-03-11T09:11:07.219Z,51968
2018-03-11T09:12:17.427Z,41568
2018-03-11T09:13:27.620Z,43872
2018-03-11T09:14:37.816Z,46272
2018-03-11T09:15:48.129Z,48384
2018-03-11T09:16:58.352Z,50272
2018-03-11T09:18:08.533Z,51360
2018-03-11T09:19:18.490Z,50528
2018-03-11T09:20:28.446Z,48480
2018-03-11T09:21:38.711Z,51776
2018-03-11T09:22:48.908Z,54848
2018-03-11T09:23:59.077Z,53696
2018-03-11T09:25:08.601Z,55136
2018-03-11T09:26:19.023Z,55264
2018-03-11T09:27:29.299Z,56352
2018-03-11T09:29:50.570Z,60320
2018-03-11T09:31:00.501Z,54240
2018-03-11T09:32:11.559Z,55808
2018-03-11T09:33:21.749Z,52288
2018-03-11T09:34:31.677Z,54944
2018-03-11T09:35:41.873Z,61504
2018-03-11T09:36:52.078Z,57792
2018-03-11T09:38:02.004Z,59008
2018-03-11T09:39:12.022Z,57664
2018-03-11T09:40:22.105Z,57856
2018-03-11T09:41:32.081Z,64544
2018-03-11T09:42:41.996Z,60608
2018-03-11T09:43:51.935Z,51648
2018-03-11T09:45:02.142Z,52992
2018-03-11T09:46:12.345Z,54208
2018-03-11T09:47:22.608Z,60064
2018-03-11T09:48:32.849Z,67488
2018-03-11T09:49:43.054Z,68192
2018-03-11T09:50:53.260Z,53984
2018-03-11T09:52:03.185Z,56960
2018-03-11T09:53:13.388Z,63008
2018-03-11T09:54:23.263Z,56352
2018-03-11T09:55:33.264Z,61920
2018-03-11T09:56:43.465Z,67712
2018-03-11T09:57:53.703Z,67776
2018-03-11T09:59:03.926Z,60608
2018-03-11T10:00:14.086Z,64000
2018-03-11T10:01:24.259Z,65696
2018-03-11T10:02:34.520Z,59488
2018-03-11T10:03:44.765Z,62656
2018-03-11T10:04:55.051Z,56000
2018-03-11T10:06:05.277Z,57152
2018-03-11T10:07:15.224Z,65088
2018-03-11T10:08:25.591Z,64064
2018-03-11T10:09:35.425Z,56032
2018-03-11T10:10:45.618Z,61920
2018-03-11T10:11:55.295Z,64192
2018-03-11T10:13:05.907Z,62464
2018-03-11T10:14:16.175Z,59232
2018-03-11T10:15:27.076Z,59520
2018-03-11T10:16:37.314Z,58656
2018-03-11T10:17:47.241Z,72736
2018-03-11T10:18:57.199Z,73408
2018-03-11T10:20:07.375Z,62688
2018-03-11T10:21:17.325Z,60224
2018-03-11T10:22:27.444Z,58176
2018-03-11T10:23:37.629Z,66688
2018-03-11T10:24:47.904Z,62368
2018-03-11T10:25:58.167Z,57248
2018-03-11T10:27:08.613Z,61888
2018-03-11T10:28:18.883Z,71360
2018-03-11T10:29:29.139Z,69792
2018-03-11T10:30:38.974Z,64096
2018-03-11T10:31:49.265Z,62880
2018-03-11T10:32:59.173Z,57344
2018-03-11T10:34:09.380Z,56096
2018-03-11T10:35:19.643Z,61760
2018-03-11T10:36:29.546Z,61760
2018-03-11T10:37:39.705Z,59424
2018-03-11T10:38:49.887Z,31552
2018-03-11T10:40:00.429Z,62752
2018-03-11T10:41:10.378Z,48736
2018-03-11T10:42:20.573Z,66464
2018-03-11T10:43:30.743Z,65120
2018-03-11T10:44:55.488Z,64320
2018-03-11T10:46:05.784Z,68064
2018-03-11T10:47:15.610Z,65952
2018-03-11T10:48:25.777Z,63872
2018-03-11T10:49:35.659Z,65536
2018-03-11T10:50:46.219Z,62272
2018-03-11T10:51:56.478Z,51872
2018-03-11T10:53:06.600Z,40384
2018-03-11T10:54:17.179Z,42048
2018-03-11T10:55:27.250Z,34880
2018-03-11T10:56:37.526Z,34432
2018-03-11T10:57:47.728Z,44384
2018-03-11T10:58:57.927Z,58688
2018-03-11T11:00:08.141Z,54656
2018-03-11T11:01:18.109Z,64512
2018-03-11T11:02:28.066Z,56000
2018-03-11T11:03:38.025Z,40544
2018-03-11T11:04:47.882Z,24704
2018-03-11T11:06:04.388Z,40864
2018-03-11T11:07:14.740Z,34240
2018-03-11T11:08:24.084Z,50464
2018-03-11T11:09:34.339Z,13512
2018-03-11T11:10:44.027Z,11260
2018-03-11T11:11:53.619Z,14228
2018-03-11T11:13:03.302Z,10672
2018-03-11T11:14:13.251Z,6656
2018-03-11T11:15:23.302Z,6144
2018-03-11T11:16:33.258Z,6168
2018-03-11T11:17:43.411Z,6144
2018-03-11T11:18:53.358Z,5784
2018-03-11T11:20:03.632Z,5516
2018-03-11T11:21:13.875Z,6348
2018-03-11T11:22:24.091Z,7076
2018-03-11T11:23:34.335Z,8788
2018-03-11T11:24:44.541Z,12312
2018-03-11T11:25:54.747Z,15840
2018-03-11T11:27:04.969Z,16000
2018-03-11T11:28:15.151Z,16480
2018-03-11T11:29:25.342Z,19360
2018-03-11T11:30:35.646Z,33312
2018-03-11T11:31:45.891Z,22080
2018-03-11T11:32:56.146Z,24352
2018-03-11T11:34:06.396Z,32800
2018-03-11T11:35:16.588Z,48352
2018-03-11T11:36:26.783Z,42208
2018-03-11T11:37:37.104Z,44992
2018-03-11T11:38:47.297Z,39584
2018-03-11T11:39:57.473Z,40576
2018-03-11T11:41:07.657Z,37280
2018-03-11T11:42:17.970Z,37856
2018-03-11T11:43:28.149Z,29632
2018-03-11T11:44:38.412Z,32864
2018-03-11T11:45:48.631Z,36064
2018-03-11T11:46:58.769Z,35232
2018-03-11T11:48:09.014Z,36128
2018-03-11T11:49:18.916Z,39616
2018-03-11T11:50:29.164Z,39840
2018-03-11T11:51:39.573Z,54496
2018-03-11T11:52:49.887Z,51424
2018-03-11T11:54:00.082Z,48384
2018-03-11T11:55:10.026Z,54464
2018-03-11T11:56:20.563Z,55680
2018-03-11T11:57:30.769Z,52000
2018-03-11T11:58:40.977Z,51808
2018-03-11T11:59:51.185Z,49600
2018-03-11T12:01:01.406Z,46528
2018-03-11T12:02:11.588Z,47136
2018-03-11T12:03:21.897Z,50208
2018-03-11T12:04:32.123Z,50112
2018-03-11T12:05:42.396Z,55328
2018-03-11T12:06:52.573Z,63552
2018-03-11T12:08:02.751Z,62976
2018-03-11T12:09:13.009Z,55808
2018-03-11T12:10:23.206Z,61344
2018-03-11T12:11:33.467Z,68384
2018-03-11T12:12:43.653Z,69312
2018-03-11T12:13:53.586Z,58016
2018-03-11T12:15:03.539Z,56544
2018-03-11T12:16:15.101Z,54304
2018-03-11T12:17:25.532Z,59904
2018-03-11T12:18:35.492Z,59456
2018-03-11T12:19:45.512Z,59904
2018-03-11T12:20:55.499Z,61280
2018-03-11T12:22:05.072Z,57952
2018-03-11T12:23:15.272Z,40352
2018-03-11T12:24:25.452Z,40512
2018-03-11T12:25:35.160Z,40000
2018-03-11T12:26:45.447Z,42912
2018-03-11T12:27:55.750Z,36128
2018-03-11T12:29:05.642Z,34848
2018-03-11T12:30:16.041Z,37504
2018-03-11T12:31:25.970Z,35872
2018-03-11T12:32:36.150Z,33280
2018-03-11T12:33:46.355Z,35552
2018-03-11T12:34:56.620Z,39744
2018-03-11T12:36:06.856Z,35424
2018-03-11T12:37:17.103Z,35072
2018-03-11T12:38:27.449Z,29920
2018-03-11T12:39:37.874Z,25344
2018-03-11T12:40:48.635Z,23168
2018-03-11T12:41:59.000Z,21696
2018-03-11T12:43:09.270Z,20672
2018-03-11T12:44:19.494Z,19936
2018-03-11T12:45:29.716Z,18976
2018-03-11T12:46:40.169Z,18336
2018-03-11T12:47:50.371Z,18336
2018-03-11T12:49:00.554Z,19168
2018-03-11T12:50:10.825Z,20704
2018-03-11T12:51:21.028Z,21312
2018-03-11T12:52:31.234Z,20672
2018-03-11T12:53:41.228Z,22464
2018-03-11T12:54:51.204Z,24544
2018-03-11T12:56:01.070Z,24032
2018-03-11T12:57:10.929Z,30048
2018-03-11T12:58:20.941Z,56992
2018-03-11T12:59:31.252Z,43360
2018-03-11T13:00:41.540Z,48192
2018-03-11T13:01:51.474Z,69984
2018-03-11T13:03:01.826Z,61312
2018-03-11T13:04:11.843Z,55168
2018-03-11T13:05:22.083Z,54400
2018-03-11T13:06:32.371Z,64064
2018-03-11T13:07:42.605Z,60832
2018-03-11T13:08:52.939Z,62016
2018-03-11T13:10:02.987Z,60128
2018-03-11T13:11:12.944Z,56832
2018-03-11T13:12:23.040Z,53920
2018-03-11T13:13:33.342Z,56576
2018-03-11T13:14:43.558Z,65504
2018-03-11T13:15:53.734Z,64096
2018-03-11T13:17:03.995Z,51328
2018-03-11T13:18:14.008Z,57248
2018-03-11T13:19:24.084Z,58848
2018-03-11T13:20:34.360Z,48992
2018-03-11T13:21:44.898Z,50336
2018-03-11T13:22:55.073Z,53152
2018-03-11T13:24:05.297Z,60992
2018-03-11T13:25:15.547Z,58560
2018-03-11T13:26:25.758Z,53824
2018-03-11T13:27:35.970Z,54560
2018-03-11T13:28:46.216Z,44384
2018-03-11T13:29:56.429Z,50784
2018-03-11T13:31:06.674Z,26560
2018-03-11T13:32:16.902Z,45280
2018-03-11T13:33:27.150Z,51520
2018-03-11T13:34:37.368Z,18144
2018-03-11T13:35:47.545Z,13884
2018-03-11T13:36:57.912Z,41728
2018-03-11T13:38:08.215Z,14424
2018-03-11T13:39:18.395Z,16800
2018-03-11T13:40:28.566Z,15808
2018-03-11T13:41:38.504Z,25216
2018-03-11T13:42:48.759Z,17920
2018-03-11T13:43:58.957Z,16544
2018-03-11T13:45:09.156Z,16000
2018-03-11T13:46:19.362Z,16800
2018-03-11T13:47:29.562Z,14620
2018-03-11T13:48:39.736Z,14580
2018-03-11T13:49:49.902Z,13468
2018-03-11T13:51:00.116Z,14016
2018-03-11T13:52:10.324Z,14412
2018-03-11T13:53:20.509Z,13416
2018-03-11T13:54:30.705Z,11484
2018-03-11T13:55:41.077Z,8900
2018-03-11T13:56:51.019Z,8232
2018-03-11T13:58:00.979Z,8628
2018-03-11T13:59:10.823Z,9164
2018-03-11T14:00:20.814Z,9328
2018-03-11T14:01:32.220Z,9108
2018-03-11T14:02:42.767Z,9044
2018-03-11T14:03:52.963Z,9208
2018-03-11T14:05:03.150Z,9260
2018-03-11T14:06:13.033Z,9196
2018-03-11T14:07:23.222Z,9428
2018-03-11T14:08:33.384Z,9076
2018-03-11T14:09:44.151Z,7960
2018-03-11T14:10:54.344Z,7212
2018-03-11T14:12:03.925Z,6984
2018-03-11T14:13:14.190Z,7152
2018-03-11T14:14:24.377Z,7876
2018-03-11T14:15:34.630Z,8096
2018-03-11T14:16:44.826Z,7452
2018-03-11T14:17:55.399Z,6560
2018-03-11T14:19:05.351Z,5692
2018-03-11T14:20:15.621Z,5268
2018-03-11T14:21:25.835Z,5104
2018-03-11T14:22:36.072Z,4720
2018-03-11T14:23:46.105Z,4368
2018-03-11T14:24:56.310Z,4300
2018-03-11T14:26:06.559Z,4660
2018-03-11T14:27:16.784Z,4688
2018-03-11T14:28:26.997Z,4248
2018-03-11T14:29:37.005Z,4008
2018-03-11T14:30:47.199Z,4028
2018-03-11T14:31:57.397Z,4112
2018-03-11T14:33:07.574Z,3868
2018-03-11T14:34:17.480Z,3376
2018-03-11T14:35:27.664Z,3160
2018-03-11T14:36:37.859Z,3248
2018-03-11T14:37:48.040Z,3460
2018-03-11T14:38:58.223Z,3632
2018-03-11T14:40:08.423Z,3620
2018-03-11T14:41:18.693Z,3556
2018-03-11T14:42:28.910Z,3536
2018-03-11T14:43:39.115Z,3444
2018-03-11T14:44:49.345Z,3308
2018-03-11T14:45:59.590Z,3256
2018-03-11T14:47:09.779Z,3292
2018-03-11T14:48:19.999Z,3196
2018-03-11T14:49:30.183Z,2924
2018-03-11T14:50:40.128Z,2916
2018-03-11T14:51:50.422Z,3128
2018-03-11T14:53:00.773Z,3152
2018-03-11T14:54:10.968Z,3188
2018-03-11T14:55:21.183Z,3348
2018-03-11T14:56:31.519Z,3752
2018-03-11T14:57:41.819Z,4272
2018-03-11T14:58:51.987Z,4488
2018-03-11T15:00:02.230Z,4476
2018-03-11T15:01:12.236Z,4228
2018-03-11T15:02:22.446Z,4072
2018-03-11T15:03:32.372Z,3944
2018-03-11T15:04:42.559Z,3840
2018-03-11T15:05:52.794Z,3540
2018-03-11T15:07:02.448Z,3348
2018-03-11T15:08:12.695Z,3180
2018-03-11T15:09:22.639Z,3272
2018-03-11T15:10:32.561Z,3584
2018-03-11T15:11:42.615Z,3912
2018-03-11T15:12:52.925Z,4196
2018-03-11T15:14:02.866Z,4108
2018-03-11T15:15:12.859Z,4092
2018-03-11T15:16:23.052Z,4160
2018-03-11T15:17:33.318Z,4336
2018-03-11T15:18:43.088Z,4468
2018-03-11T15:19:53.322Z,4484
2018-03-11T15:21:03.558Z,4448
2018-03-11T15:22:14.728Z,4456
2018-03-11T15:23:24.653Z,4460
2018-03-11T15:24:34.816Z,4552
2018-03-11T15:25:45.003Z,4728
2018-03-11T15:26:54.732Z,4884
2018-03-11T15:28:05.001Z,5056
2018-03-11T15:29:15.072Z,5048
2018-03-11T15:30:25.100Z,4976
2018-03-11T15:31:35.347Z,4848
2018-03-11T15:32:45.318Z,4860
2018-03-11T15:33:55.645Z,5004
2018-03-11T15:35:05.313Z,5200
2018-03-11T15:36:15.118Z,5352
2018-03-11T15:37:25.350Z,5352
2018-03-11T15:38:35.382Z,5448
2018-03-11T15:39:45.861Z,5740
2018-03-11T15:40:56.095Z,6216
2018-03-11T15:42:06.340Z,7916
2018-03-11T15:43:16.157Z,7968
2018-03-11T15:44:26.412Z,8824
2018-03-11T15:45:37.566Z,6952
2018-03-11T15:46:47.815Z,6404
2018-03-11T15:47:57.639Z,8228
2018-03-11T15:49:07.828Z,7112
2018-03-11T15:50:17.759Z,8876
2018-03-11T15:51:27.815Z,6176
2018-03-11T15:52:37.823Z,5708
2018-03-11T15:53:47.749Z,5524
2018-03-11T15:54:57.999Z,5568
2018-03-11T15:56:08.345Z,5508
2018-03-11T15:57:18.584Z,5072
2018-03-11T15:58:28.511Z,4440
2018-03-11T15:59:38.446Z,4236
2018-03-11T16:00:48.367Z,3900
2018-03-11T16:01:58.356Z,3556
2018-03-11T16:03:08.311Z,3316
2018-03-11T16:04:18.159Z,3220
2018-03-11T16:05:28.343Z,3136
2018-03-11T16:06:38.620Z,3068
2018-03-11T16:07:48.828Z,3024